Mukwonago, WI

11:18 PM CST on November 23, 2014 (GMT -0600)
Meadow Park Estates | Change Station
CLOSE
Current Station
Personal Weather Station
Location: Mukwonago, WI
Elevation: 807 ft
Nearby Weather Stations

Elev 807 ft 42.86 °N, 88.33 °W | Updated 3 seconds ago

Rain
Rain
45.9 °F
Feels Like 46 °F
N
0.0
Wind Variable Wind from North
Gusts 0.0 mph

Today
High -- | Low -- °F
--% Chance of Precip.
Yesterday
High -- | Low -- °F
Precip. -- in
6:55 AM 4:23 PM
Waxing Crescent, 4% visible
Pressure 29.12 in
Visibility 0.5 miles
Clouds Mostly Cloudy 200 ft
Windchill 46 °F
Dew Point 45 °F
Humidity 98%
Rainfall 0.00 in
Snow Depth Not available.
UV 0 out of 12
Pollen .10 out of 12
Air Quality Not available.
Flu Activity Not available.
METAR KBUU 240455Z AUTO 00000KT 1/2SM -RA BKN002 07/07 A2912 RMK AO2 T00660066

More Conditions Fewer Conditions

Pressure 29.12 in
Visibility 0.5 miles
Clouds Mostly Cloudy 200 ft
Windchill 46 °F
Dew Point 45 °F
Humidity 98%
Rainfall 0.00 in
Snow Depth Not available.
UV 0 out of 12
Pollen .10 out of 12
Air Quality Not available.
Flu Activity Not available.
METAR KBUU 240455Z AUTO 00000KT 1/2SM -RA BKN002 07/07 A2912 RMK AO2 T00660066

More Conditions Fewer Conditions

10-Day Weather Forecast

Almanac

Astronomy

Nov. 23, 2014 Rise Set
Actual Time
Civil Twilight
Nautical Twilight
Astronomical Twilight
Moon
Length of Visible Light
Length of Day
Tomorrow will be .
, % of the Moon is Illuminated

Today's Extremes

State Highs State Lows

Community

WunderPhotos

Upload Photos

1,773,269 photos uploaded!

WunderBlogs® & News

Nearby

Air Quality

  Air Quality AQ Index Pollutant
Not available.

Snow Depth

Station Depth Elevation

Earthquake Activity

City Distance Mag. Time & Date
Minimum magnitude displayed is 2.5.

Coastal Water Temperatures

Place Temperature

Nearby Weather Stations